sensor_id;sensor_type;location;lat;lon;timestamp;pressure;altitude;pressure_sealevel;temperature;humidity
12475;BME280;6302;42.624;23.334;2023-09-19T00:02:26;93700.78;;;16.63;100.00
12475;BME280;6302;42.624;23.334;2023-09-19T00:04:53;93696.59;;;16.62;100.00
12475;BME280;6302;42.624;23.334;2023-09-19T00:07:20;93695.13;;;16.61;100.00
12475;BME280;6302;42.624;23.334;2023-09-19T00:09:47;93696.28;;;16.60;100.00
12475;BME280;6302;42.624;23.334;2023-09-19T00:12:14;93696.72;;;16.58;100.00
12475;BME280;6302;42.624;23.334;2023-09-19T00:14:42;93688.00;;;16.54;100.00
12475;BME280;6302;42.624;23.334;2023-09-19T00:17:09;93694.53;;;16.53;100.00
12475;BME280;6302;42.624;23.334;2023-09-19T00:19:37;93694.25;;;16.48;100.00
12475;BME280;6302;42.624;23.334;2023-09-19T00:22:04;93698.63;;;16.42;100.00
12475;BME280;6302;42.624;23.334;2023-09-19T00:24:30;93689.56;;;16.36;100.00
12475;BME280;6302;42.624;23.334;2023-09-19T00:26:57;93685.88;;;16.29;100.00
12475;BME280;6302;42.624;23.334;2023-09-19T00:29:25;93693.06;;;16.33;100.00
12475;BME280;6302;42.624;23.334;2023-09-19T00:31:56;93688.66;;;16.26;100.00
12475;BME280;6302;42.624;23.334;2023-09-19T00:34:24;93686.75;;;16.26;100.00
12475;BME280;6302;42.624;23.334;2023-09-19T00:36:53;93681.88;;;16.21;100.00
12475;BME280;6302;42.624;23.334;2023-09-19T00:39:20;93682.28;;;16.20;100.00
12475;BME280;6302;42.624;23.334;2023-09-19T00:41:47;93677.88;;;16.13;100.00
12475;BME280;6302;42.624;23.334;2023-09-19T00:44:16;93676.34;;;16.12;100.00
12475;BME280;6302;42.624;23.334;2023-09-19T00:46:43;93674.59;;;16.06;100.00
12475;BME280;6302;42.624;23.334;2023-09-19T00:49:16;93679.19;;;16.05;100.00
12475;BME280;6302;42.624;23.334;2023-09-19T00:51:46;93677.78;;;16.01;100.00
12475;BME280;6302;42.624;23.334;2023-09-19T00:54:13;93677.84;;;15.97;100.00
12475;BME280;6302;42.624;23.334;2023-09-19T00:56:45;93679.50;;;15.91;100.00
12475;BME280;6302;42.624;23.334;2023-09-19T00:59:14;93684.09;;;15.91;100.00
12475;BME280;6302;42.624;23.334;2023-09-19T01:01:42;93683.50;;;15.83;100.00
12475;BME280;6302;42.624;23.334;2023-09-19T01:04:11;93674.50;;;15.77;100.00
12475;BME280;6302;42.624;23.334;2023-09-19T01:06:40;93672.97;;;15.76;100.00
12475;BME280;6302;42.624;23.334;2023-09-19T01:09:07;93673.03;;;15.73;100.00
12475;BME280;6302;42.624;23.334;2023-09-19T01:11:39;93678.03;;;15.71;100.00
12475;BME280;6302;42.624;23.334;2023-09-19T01:14:16;93672.47;;;15.65;100.00
12475;BME280;6302;42.624;23.334;2023-09-19T01:16:53;93682.06;;;15.63;100.00
12475;BME280;6302;42.624;23.334;2023-09-19T01:20:00;93679.44;;;15.59;100.00
12475;BME280;6302;42.624;23.334;2023-09-19T01:22:39;93674.16;;;15.55;100.00
12475;BME280;6302;42.624;23.334;2023-09-19T01:25:42;93680.69;;;15.54;100.00
12475;BME280;6302;42.624;23.334;2023-09-19T01:28:39;93680.75;;;15.51;100.00
12475;BME280;6302;42.624;23.334;2023-09-19T01:31:15;93686.50;;;15.49;100.00
12475;BME280;6302;42.624;23.334;2023-09-19T01:33:59;93686.56;;;15.46;100.00
12475;BME280;6302;42.624;23.334;2023-09-19T01:36:27;93686.22;;;15.44;100.00
12475;BME280;6302;42.624;23.334;2023-09-19T01:38:55;93682.06;;;15.43;100.00
12475;BME280;6302;42.624;23.334;2023-09-19T01:41:30;93685.13;;;15.41;100.00
12475;BME280;6302;42.624;23.334;2023-09-19T01:44:03;93671.00;;;15.41;100.00
12475;BME280;6302;42.624;23.334;2023-09-19T01:46:36;93670.75;;;15.35;100.00
12475;BME280;6302;42.624;23.334;2023-09-19T01:49:15;93666.63;;;15.31;100.00
12475;BME280;6302;42.624;23.334;2023-09-19T01:51:53;93676.59;;;15.30;100.00
12475;BME280;6302;42.624;23.334;2023-09-19T01:54:27;93670.16;;;15.28;100.00
12475;BME280;6302;42.624;23.334;2023-09-19T01:57:00;93674.78;;;15.24;100.00
12475;BME280;6302;42.624;23.334;2023-09-19T01:59:37;93672.97;;;15.21;100.00
12475;BME280;6302;42.624;23.334;2023-09-19T02:02:10;93681.03;;;15.17;100.00
12475;BME280;6302;42.624;23.334;2023-09-19T02:04:37;93692.19;;;15.12;100.00
12475;BME280;6302;42.624;23.334;2023-09-19T02:07:04;93685.75;;;15.10;100.00
12475;BME280;6302;42.624;23.334;2023-09-19T02:09:34;93685.78;;;15.06;100.00
12475;BME280;6302;42.624;23.334;2023-09-19T02:12:05;93691.56;;;15.05;100.00
12475;BME280;6302;42.624;23.334;2023-09-19T02:14:32;93683.97;;;15.03;100.00
12475;BME280;6302;42.624;23.334;2023-09-19T02:17:01;93680.53;;;15.03;100.00
12475;BME280;6302;42.624;23.334;2023-09-19T02:19:30;93687.38;;;15.04;100.00
12475;BME280;6302;42.624;23.334;2023-09-19T02:21:59;93660.28;;;14.85;100.00
12475;BME280;6302;42.624;23.334;2023-09-19T02:24:28;93684.38;;;15.02;100.00
12475;BME280;6302;42.624;23.334;2023-09-19T02:26:56;93685.88;;;15.03;100.00
12475;BME280;6302;42.624;23.334;2023-09-19T02:29:25;93671.78;;;15.02;100.00
12475;BME280;6302;42.624;23.334;2023-09-19T02:31:52;93671.00;;;15.02;100.00
12475;BME280;6302;42.624;23.334;2023-09-19T02:34:21;93671.44;;;15.00;100.00
12475;BME280;6302;42.624;23.334;2023-09-19T02:36:52;93665.41;;;14.96;100.00
12475;BME280;6302;42.624;23.334;2023-09-19T02:39:21;93663.16;;;14.94;100.00
12475;BME280;6302;42.624;23.334;2023-09-19T02:41:49;93663.16;;;14.94;100.00
12475;BME280;6302;42.624;23.334;2023-09-19T02:44:16;93658.63;;;14.91;100.00
12475;BME280;6302;42.624;23.334;2023-09-19T02:46:45;93649.13;;;14.90;100.00
12475;BME280;6302;42.624;23.334;2023-09-19T02:49:13;93644.19;;;14.89;100.00
12475;BME280;6302;42.624;23.334;2023-09-19T02:51:40;93651.03;;;14.90;100.00
12475;BME280;6302;42.624;23.334;2023-09-19T02:54:09;93645.75;;;14.86;100.00
12475;BME280;6302;42.624;23.334;2023-09-19T02:56:37;93638.59;;;14.83;100.00
12475;BME280;6302;42.624;23.334;2023-09-19T02:59:04;93638.22;;;14.81;100.00
12475;BME280;6302;42.624;23.334;2023-09-19T03:01:32;93636.72;;;14.80;100.00
12475;BME280;6302;42.624;23.334;2023-09-19T03:03:59;93632.22;;;14.77;100.00
12475;BME280;6302;42.624;23.334;2023-09-19T03:06:26;93629.19;;;14.75;100.00
12475;BME280;6302;42.624;23.334;2023-09-19T03:08:56;93631.53;;;14.73;100.00
12475;BME280;6302;42.624;23.334;2023-09-19T03:11:27;93625.84;;;14.71;100.00
12475;BME280;6302;42.624;23.334;2023-09-19T03:13:54;93626.25;;;14.70;100.00
12475;BME280;6302;42.624;23.334;2023-09-19T03:16:21;93627.81;;;14.67;100.00
12475;BME280;6302;42.624;23.334;2023-09-19T03:18:48;93618.81;;;14.61;100.00
12475;BME280;6302;42.624;23.334;2023-09-19T03:21:15;93637.81;;;14.63;100.00
12475;BME280;6302;42.624;23.334;2023-09-19T03:23:43;93626.03;;;14.61;100.00
12475;BME280;6302;42.624;23.334;2023-09-19T03:26:12;93620.38;;;14.59;100.00
12475;BME280;6302;42.624;23.334;2023-09-19T03:28:41;93628.75;;;14.57;100.00
12475;BME280;6302;42.624;23.334;2023-09-19T03:31:09;93631.09;;;14.55;100.00
12475;BME280;6302;42.624;23.334;2023-09-19T03:33:36;93635.28;;;14.56;100.00
12475;BME280;6302;42.624;23.334;2023-09-19T03:36:04;93620.88;;;14.50;100.00
12475;BME280;6302;42.624;23.334;2023-09-19T03:38:32;93623.50;;;14.54;100.00
12475;BME280;6302;42.624;23.334;2023-09-19T03:40:59;93630.41;;;14.51;100.00
12475;BME280;6302;42.624;23.334;2023-09-19T03:43:27;93630.41;;;14.51;100.00
12475;BME280;6302;42.624;23.334;2023-09-19T03:45:55;93639.56;;;14.50;100.00
12475;BME280;6302;42.624;23.334;2023-09-19T03:48:23;93631.22;;;14.48;100.00
12475;BME280;6302;42.624;23.334;2023-09-19T03:50:50;93637.69;;;14.47;100.00
12475;BME280;6302;42.624;23.334;2023-09-19T03:53:18;93641.19;;;14.44;100.00
12475;BME280;6302;42.624;23.334;2023-09-19T03:55:45;93648.50;;;14.40;100.00
12475;BME280;6302;42.624;23.334;2023-09-19T03:58:12;93656.50;;;14.40;100.00
12475;BME280;6302;42.624;23.334;2023-09-19T04:00:40;93653.47;;;14.38;100.00
12475;BME280;6302;42.624;23.334;2023-09-19T04:03:09;93652.34;;;14.39;100.00
12475;BME280;6302;42.624;23.334;2023-09-19T04:05:45;93654.25;;;14.39;100.00
12475;BME280;6302;42.624;23.334;2023-09-19T04:08:12;93654.16;;;14.42;100.00
12475;BME280;6302;42.624;23.334;2023-09-19T04:10:41;93652.25;;;14.43;100.00
12475;BME280;6302;42.624;23.334;2023-09-19T04:13:08;93656.78;;;14.46;100.00
12475;BME280;6302;42.624;23.334;2023-09-19T04:15:36;93663.22;;;14.48;100.00
12475;BME280;6302;42.624;23.334;2023-09-19T04:18:04;93665.06;;;14.51;100.00
12475;BME280;6302;42.624;23.334;2023-09-19T04:20:32;93669.56;;;14.54;100.00
12475;BME280;6302;42.624;23.334;2023-09-19T04:22:59;93669.19;;;14.56;100.00
12475;BME280;6302;42.624;23.334;2023-09-19T04:25:26;93675.63;;;14.58;100.00
12475;BME280;6302;42.624;23.334;2023-09-19T04:27:53;93670.22;;;14.62;100.00
12475;BME280;6302;42.624;23.334;2023-09-19T04:30:20;93669.81;;;14.63;100.00
12475;BME280;6302;42.624;23.334;2023-09-19T04:32:47;93664.47;;;14.63;100.00
12475;BME280;6302;42.624;23.334;2023-09-19T04:35:16;93663.69;;;14.66;100.00
12475;BME280;6302;42.624;23.334;2023-09-19T04:37:44;93642.34;;;14.66;100.00
12475;BME280;6302;42.624;23.334;2023-09-19T04:40:12;93645.88;;;14.79;100.00
12475;BME280;6302;42.624;23.334;2023-09-19T04:42:41;93657.94;;;14.87;100.00
12475;BME280;6302;42.624;23.334;2023-09-19T04:45:09;93654.47;;;14.90;100.00
12475;BME280;6302;42.624;23.334;2023-09-19T04:47:36;93651.66;;;14.97;100.00
12475;BME280;6302;42.624;23.334;2023-09-19T04:50:07;93655.34;;;15.04;100.00
12475;BME280;6302;42.624;23.334;2023-09-19T04:52:39;93657.53;;;15.09;100.00
12475;BME280;6302;42.624;23.334;2023-09-19T04:55:09;93654.38;;;15.14;100.00
12475;BME280;6302;42.624;23.334;2023-09-19T04:57:39;93656.50;;;15.22;100.00
12475;BME280;6302;42.624;23.334;2023-09-19T05:00:07;93652.13;;;15.32;100.00
12475;BME280;6302;42.624;23.334;2023-09-19T05:02:38;93648.53;;;15.38;100.00
12475;BME280;6302;42.624;23.334;2023-09-19T05:05:07;93642.00;;;15.43;100.00
12475;BME280;6302;42.624;23.334;2023-09-19T05:07:34;93639.19;;;15.50;100.00
12475;BME280;6302;42.624;23.334;2023-09-19T05:10:01;93645.81;;;15.61;100.00
12475;BME280;6302;42.624;23.334;2023-09-19T05:12:29;93644.22;;;15.64;100.00
12475;BME280;6302;42.624;23.334;2023-09-19T05:14:56;93640.31;;;15.69;100.00
12475;BME280;6302;42.624;23.334;2023-09-19T05:17:23;93643.25;;;15.74;100.00
12475;BME280;6302;42.624;23.334;2023-09-19T05:19:50;93640.75;;;15.83;100.00
12475;BME280;6302;42.624;23.334;2023-09-19T05:22:17;93650.53;;;15.90;100.00
12475;BME280;6302;42.624;23.334;2023-09-19T05:24:45;93654.63;;;15.94;100.00
12475;BME280;6302;42.624;23.334;2023-09-19T05:27:14;93653.53;;;15.92;100.00
12475;BME280;6302;42.624;23.334;2023-09-19T05:29:44;93644.94;;;16.00;100.00
12475;BME280;6302;42.624;23.334;2023-09-19T05:32:12;93639.41;;;16.07;100.00
12475;BME280;6302;42.624;23.334;2023-09-19T05:34:46;93643.09;;;16.13;100.00
12475;BME280;6302;42.624;23.334;2023-09-19T05:37:14;93647.63;;;16.16;100.00
12475;BME280;6302;42.624;23.334;2023-09-19T05:39:49;93631.91;;;16.18;100.00
12475;BME280;6302;42.624;23.334;2023-09-19T05:42:27;93635.75;;;16.34;100.00
12475;BME280;6302;42.624;23.334;2023-09-19T05:45:04;93636.50;;;16.34;100.00
12475;BME280;6302;42.624;23.334;2023-09-19T05:47:42;93646.59;;;16.43;100.00
12475;BME280;6302;42.624;23.334;2023-09-19T05:50:15;93636.47;;;16.50;100.00
12475;BME280;6302;42.624;23.334;2023-09-19T05:52:57;93636.72;;;16.40;100.00
12475;BME280;6302;42.624;23.334;2023-09-19T05:55:37;93631.63;;;16.45;100.00
12475;BME280;6302;42.624;23.334;2023-09-19T05:58:18;93627.38;;;16.64;100.00
12475;BME280;6302;42.624;23.334;2023-09-19T06:00:50;93627.97;;;16.84;100.00
12475;BME280;6302;42.624;23.334;2023-09-19T06:03:19;93627.94;;;17.00;100.00
12475;BME280;6302;42.624;23.334;2023-09-19T06:05:47;93617.69;;;17.11;100.00
12475;BME280;6302;42.624;23.334;2023-09-19T06:08:20;93627.47;;;17.18;100.00
12475;BME280;6302;42.624;23.334;2023-09-19T06:10:48;93630.47;;;17.20;100.00
12475;BME280;6302;42.624;23.334;2023-09-19T06:13:18;93617.31;;;17.25;100.00
12475;BME280;6302;42.624;23.334;2023-09-19T06:15:49;93632.22;;;17.39;100.00
12475;BME280;6302;42.624;23.334;2023-09-19T06:18:19;93621.88;;;17.53;100.00
12475;BME280;6302;42.624;23.334;2023-09-19T06:20:47;93624.69;;;17.63;100.00
12475;BME280;6302;42.624;23.334;2023-09-19T06:23:17;93613.31;;;17.59;100.00
12475;BME280;6302;42.624;23.334;2023-09-19T06:25:46;93623.81;;;17.66;100.00
12475;BME280;6302;42.624;23.334;2023-09-19T06:28:17;93618.22;;;17.73;100.00
12475;BME280;6302;42.624;23.334;2023-09-19T06:30:51;93617.91;;;17.83;100.00
12475;BME280;6302;42.624;23.334;2023-09-19T06:33:21;93624.25;;;18.02;100.00
12475;BME280;6302;42.624;23.334;2023-09-19T06:35:49;93618.53;;;18.00;100.00
12475;BME280;6302;42.624;23.334;2023-09-19T06:38:21;93618.13;;;18.14;100.00
12475;BME280;6302;42.624;23.334;2023-09-19T06:40:51;93620.88;;;18.23;100.00
12475;BME280;6302;42.624;23.334;2023-09-19T06:43:22;93618.66;;;18.22;100.00
12475;BME280;6302;42.624;23.334;2023-09-19T06:45:55;93621.19;;;18.25;100.00
12475;BME280;6302;42.624;23.334;2023-09-19T06:48:23;93626.25;;;18.23;100.00
12475;BME280;6302;42.624;23.334;2023-09-19T06:50:56;93632.03;;;18.34;100.00
12475;BME280;6302;42.624;23.334;2023-09-19T06:53:32;93641.13;;;18.49;100.00
12475;BME280;6302;42.624;23.334;2023-09-19T06:56:02;93641.44;;;18.64;100.00
12475;BME280;6302;42.624;23.334;2023-09-19T06:58:33;93625.63;;;18.78;100.00
12475;BME280;6302;42.624;23.334;2023-09-19T07:01:05;93628.97;;;18.92;100.00
12475;BME280;6302;42.624;23.334;2023-09-19T07:03:45;93631.97;;;18.94;100.00
12475;BME280;6302;42.624;23.334;2023-09-19T07:06:15;93639.47;;;18.99;100.00
12475;BME280;6302;42.624;23.334;2023-09-19T07:08:51;93639.47;;;18.99;100.00
12475;BME280;6302;42.624;23.334;2023-09-19T07:11:24;93636.56;;;19.06;100.00
12475;BME280;6302;42.624;23.334;2023-09-19T07:13:59;93644.88;;;19.20;100.00
12475;BME280;6302;42.624;23.334;2023-09-19T07:16:35;93643.97;;;19.23;100.00
12475;BME280;6302;42.624;23.334;2023-09-19T07:19:06;93639.09;;;19.31;100.00
12475;BME280;6302;42.624;23.334;2023-09-19T07:21:36;93640.94;;;19.34;100.00
12475;BME280;6302;42.624;23.334;2023-09-19T07:24:06;93623.19;;;19.15;100.00
12475;BME280;6302;42.624;23.334;2023-09-19T07:26:38;93646.25;;;19.25;100.00
12475;BME280;6302;42.624;23.334;2023-09-19T07:29:12;93634.63;;;19.28;100.00
12475;BME280;6302;42.624;23.334;2023-09-19T07:31:57;93643.69;;;19.21;100.00
12475;BME280;6302;42.624;23.334;2023-09-19T07:34:27;93648.50;;;19.26;100.00
12475;BME280;6302;42.624;23.334;2023-09-19T07:36:57;93645.75;;;19.39;100.00
12475;BME280;6302;42.624;23.334;2023-09-19T07:39:27;93639.00;;;19.34;100.00
12475;BME280;6302;42.624;23.334;2023-09-19T07:41:57;93645.81;;;19.48;100.00
12475;BME280;6302;42.624;23.334;2023-09-19T07:44:27;93647.50;;;19.55;100.00
12475;BME280;6302;42.624;23.334;2023-09-19T07:47:04;93647.13;;;19.65;100.00
12475;BME280;6302;42.624;23.334;2023-09-19T07:49:40;93648.16;;;19.68;100.00
12475;BME280;6302;42.624;23.334;2023-09-19T07:52:14;93647.13;;;19.65;100.00
12475;BME280;6302;42.624;23.334;2023-09-19T07:54:50;93654.88;;;19.63;100.00
12475;BME280;6302;42.624;23.334;2023-09-19T07:57:29;93652.88;;;19.55;100.00
12475;BME280;6302;42.624;23.334;2023-09-19T08:00:06;93657.50;;;19.54;100.00
12475;BME280;6302;42.624;23.334;2023-09-19T08:02:40;93654.78;;;19.45;100.00
12475;BME280;6302;42.624;23.334;2023-09-19T08:05:15;93652.53;;;19.31;100.00
12475;BME280;6302;42.624;23.334;2023-09-19T08:08:02;93653.16;;;19.48;100.00
12475;BME280;6302;42.624;23.334;2023-09-19T08:10:40;93658.03;;;19.71;100.00
12475;BME280;6302;42.624;23.334;2023-09-19T08:13:17;93647.75;;;19.69;100.00
12475;BME280;6302;42.624;23.334;2023-09-19T08:15:58;93647.78;;;19.78;100.00
12475;BME280;6302;42.624;23.334;2023-09-19T08:18:48;93641.81;;;19.83;100.00
12475;BME280;6302;42.624;23.334;2023-09-19T08:21:26;93637.69;;;19.91;100.00
12475;BME280;6302;42.624;23.334;2023-09-19T08:23:55;93627.00;;;20.09;100.00
12475;BME280;6302;42.624;23.334;2023-09-19T08:26:22;93629.44;;;20.26;100.00
12475;BME280;6302;42.624;23.334;2023-09-19T08:28:50;93627.94;;;20.25;100.00
12475;BME280;6302;42.624;23.334;2023-09-19T08:31:18;93622.72;;;20.30;100.00
12475;BME280;6302;42.624;23.334;2023-09-19T08:33:47;93622.31;;;20.41;100.00
12475;BME280;6302;42.624;23.334;2023-09-19T08:36:15;93631.03;;;20.54;100.00
12475;BME280;6302;42.624;23.334;2023-09-19T08:38:42;93636.56;;;20.68;100.00
12475;BME280;6302;42.624;23.334;2023-09-19T08:41:09;93633.56;;;20.66;100.00
12475;BME280;6302;42.624;23.334;2023-09-19T08:43:36;93638.97;;;20.75;100.00
12475;BME280;6302;42.624;23.334;2023-09-19T08:46:09;93645.84;;;20.95;100.00
12475;BME280;6302;42.624;23.334;2023-09-19T08:48:39;93642.44;;;21.03;100.00
12475;BME280;6302;42.624;23.334;2023-09-19T08:51:17;93626.53;;;20.96;100.00
12475;BME280;6302;42.624;23.334;2023-09-19T08:53:51;93625.34;;;20.97;100.00
12475;BME280;6302;42.624;23.334;2023-09-19T08:56:21;93624.63;;;21.06;100.00
12475;BME280;6302;42.624;23.334;2023-09-19T08:58:51;93623.09;;;21.05;100.00
12475;BME280;6302;42.624;23.334;2023-09-19T09:01:21;93620.13;;;21.03;100.00
12475;BME280;6302;42.624;23.334;2023-09-19T09:03:53;93620.28;;;21.17;100.00
12475;BME280;6302;42.624;23.334;2023-09-19T09:06:27;93611.59;;;21.22;99.98
12475;BME280;6302;42.624;23.334;2023-09-19T09:08:58;93609.78;;;21.28;100.00
12475;BME280;6302;42.624;23.334;2023-09-19T09:11:28;93615.78;;;21.32;99.45
12475;BME280;6302;42.624;23.334;2023-09-19T09:13:58;93609.47;;;21.45;97.62
12475;BME280;6302;42.624;23.334;2023-09-19T09:16:30;93619.88;;;21.61;99.19
12475;BME280;6302;42.624;23.334;2023-09-19T09:19:04;93612.94;;;21.78;97.59
12475;BME280;6302;42.624;23.334;2023-09-19T09:21:44;93610.69;;;21.85;95.82
12475;BME280;6302;42.624;23.334;2023-09-19T09:24:35;93598.84;;;21.92;97.12
12475;BME280;6302;42.624;23.334;2023-09-19T09:27:18;93604.16;;;22.10;95.57
12475;BME280;6302;42.624;23.334;2023-09-19T09:30:10;93601.72;;;22.21;94.41
12475;BME280;6302;42.624;23.334;2023-09-19T09:33:15;93596.78;;;22.43;91.96
12475;BME280;6302;42.624;23.334;2023-09-19T09:35:55;93594.00;;;22.52;91.00
12475;BME280;6302;42.624;23.334;2023-09-19T09:38:49;93594.00;;;22.52;91.19
12475;BME280;6302;42.624;23.334;2023-09-19T09:41:36;93589.31;;;22.38;91.94
12475;BME280;6302;42.624;23.334;2023-09-19T09:44:18;93586.88;;;22.40;89.74
12475;BME280;6302;42.624;23.334;2023-09-19T09:46:54;93581.53;;;22.55;90.84
12475;BME280;6302;42.624;23.334;2023-09-19T09:49:42;93574.47;;;22.57;91.84
12475;BME280;6302;42.624;23.334;2023-09-19T09:52:45;93581.84;;;22.81;91.94
12475;BME280;6302;42.624;23.334;2023-09-19T09:55:25;93567.88;;;22.97;87.49
12475;BME280;6302;42.624;23.334;2023-09-19T09:58:21;93565.19;;;22.97;86.51
12475;BME280;6302;42.624;23.334;2023-09-19T10:01:10;93559.34;;;23.13;85.90
12475;BME280;6302;42.624;23.334;2023-09-19T10:03:45;93561.19;;;23.07;87.03
12475;BME280;6302;42.624;23.334;2023-09-19T10:06:25;93560.13;;;22.90;88.15
12475;BME280;6302;42.624;23.334;2023-09-19T10:09:08;93570.88;;;22.99;92.43
12475;BME280;6302;42.624;23.334;2023-09-19T10:11:50;93568.09;;;23.08;91.22
12475;BME280;6302;42.624;23.334;2023-09-19T10:14:33;93569.50;;;23.03;85.63
12475;BME280;6302;42.624;23.334;2023-09-19T10:17:17;93566.56;;;22.92;88.14
12475;BME280;6302;42.624;23.334;2023-09-19T10:19:58;93554.06;;;22.80;89.35
12475;BME280;6302;42.624;23.334;2023-09-19T10:22:41;93558.06;;;22.85;87.66
12475;BME280;6302;42.624;23.334;2023-09-19T10:25:15;93553.59;;;22.82;88.89
12475;BME280;6302;42.624;23.334;2023-09-19T10:27:54;93556.25;;;22.91;90.08
12475;BME280;6302;42.624;23.334;2023-09-19T10:30:41;93557.81;;;22.97;90.24
12475;BME280;6302;42.624;23.334;2023-09-19T10:33:24;93555.69;;;23.16;89.57
12475;BME280;6302;42.624;23.334;2023-09-19T10:36:07;93549.84;;;23.32;89.13
12475;BME280;6302;42.624;23.334;2023-09-19T10:39:04;93546.13;;;23.44;87.35
12475;BME280;6302;42.624;23.334;2023-09-19T10:41:41;93539.75;;;23.33;84.84
12475;BME280;6302;42.624;23.334;2023-09-19T10:44:16;93547.06;;;23.41;84.38
12475;BME280;6302;42.624;23.334;2023-09-19T10:46:47;93544.06;;;23.39;85.27
12475;BME280;6302;42.624;23.334;2023-09-19T10:49:16;93545.66;;;23.46;85.10
12475;BME280;6302;42.624;23.334;2023-09-19T10:51:44;93548.16;;;23.49;84.00
12475;BME280;6302;42.624;23.334;2023-09-19T10:54:18;93545.09;;;23.56;84.03
12475;BME280;6302;42.624;23.334;2023-09-19T10:56:49;93541.72;;;23.61;83.65
12475;BME280;6302;42.624;23.334;2023-09-19T10:59:21;93540.13;;;23.69;82.43
12475;BME280;6302;42.624;23.334;2023-09-19T11:01:52;93536.97;;;23.56;81.26
12475;BME280;6302;42.624;23.334;2023-09-19T11:04:26;93539.28;;;23.63;81.31
12475;BME280;6302;42.624;23.334;2023-09-19T11:07:06;93536.19;;;23.70;83.07
12475;BME280;6302;42.624;23.334;2023-09-19T11:09:47;93535.25;;;23.73;80.24
12475;BME280;6302;42.624;23.334;2023-09-19T11:12:48;93536.50;;;23.72;82.64
12475;BME280;6302;42.624;23.334;2023-09-19T11:19:00;93531.16;;;23.63;79.32
12475;BME280;6302;42.624;23.334;2023-09-19T11:21:58;93527.38;;;23.55;81.21
12475;BME280;6302;42.624;23.334;2023-09-19T11:24:32;93519.25;;;23.55;80.17
12475;BME280;6302;42.624;23.334;2023-09-19T11:27:13;93524.28;;;23.62;80.76
12475;BME280;6302;42.624;23.334;2023-09-19T11:29:45;93518.56;;;23.60;82.67
12475;BME280;6302;42.624;23.334;2023-09-19T11:32:18;93504.13;;;23.63;83.38
12475;BME280;6302;42.624;23.334;2023-09-19T11:35:14;93516.91;;;23.98;81.97
12475;BME280;6302;42.624;23.334;2023-09-19T11:38:00;93510.94;;;24.08;79.34
12475;BME280;6302;42.624;23.334;2023-09-19T11:40:56;93503.63;;;24.14;77.94
12475;BME280;6302;42.624;23.334;2023-09-19T11:43:44;93497.81;;;24.21;79.12
12475;BME280;6302;42.624;23.334;2023-09-19T11:46:20;93494.09;;;24.39;77.55
12475;BME280;6302;42.624;23.334;2023-09-19T11:48:52;93482.34;;;24.47;74.85
12475;BME280;6302;42.624;23.334;2023-09-19T11:51:26;93477.69;;;24.48;74.13
12475;BME280;6302;42.624;23.334;2023-09-19T11:54:12;93472.69;;;24.41;75.65
12475;BME280;6302;42.624;23.334;2023-09-19T11:56:53;93474.72;;;24.26;75.57
12475;BME280;6302;42.624;23.334;2023-09-19T11:59:29;93475.00;;;24.28;75.46
12475;BME280;6302;42.624;23.334;2023-09-19T12:02:03;93472.84;;;24.12;78.02
12475;BME280;6302;42.624;23.334;2023-09-19T12:04:37;93472.44;;;24.19;78.48
12475;BME280;6302;42.624;23.334;2023-09-19T12:07:17;93471.41;;;24.36;78.10
12475;BME280;6302;42.624;23.334;2023-09-19T12:09:50;93471.16;;;24.60;78.69
12475;BME280;6302;42.624;23.334;2023-09-19T12:12:40;93462.59;;;24.67;76.23
12475;BME280;6302;42.624;23.334;2023-09-19T12:15:14;93460.66;;;24.68;76.02
12475;BME280;6302;42.624;23.334;2023-09-19T12:17:46;93457.00;;;24.71;78.04
12475;BME280;6302;42.624;23.334;2023-09-19T12:20:15;93448.72;;;24.80;77.11
12475;BME280;6302;42.624;23.334;2023-09-19T12:22:49;93447.34;;;24.90;76.62
12475;BME280;6302;42.624;23.334;2023-09-19T12:25:20;93451.81;;;24.93;76.54
12475;BME280;6302;42.624;23.334;2023-09-19T12:27:54;93433.41;;;25.02;75.91
12475;BME280;6302;42.624;23.334;2023-09-19T12:30:29;93439.22;;;25.21;73.99
12475;BME280;6302;42.624;23.334;2023-09-19T12:33:18;93439.97;;;25.21;73.69
12475;BME280;6302;42.624;23.334;2023-09-19T12:35:56;93426.44;;;25.27;73.50
12475;BME280;6302;42.624;23.334;2023-09-19T12:38:29;93427.97;;;25.34;74.08
12475;BME280;6302;42.624;23.334;2023-09-19T12:41:09;93421.13;;;25.44;73.25
12475;BME280;6302;42.624;23.334;2023-09-19T12:43:55;93420.00;;;25.56;72.09
12475;BME280;6302;42.624;23.334;2023-09-19T12:46:37;93421.00;;;25.58;72.82
12475;BME280;6302;42.624;23.334;2023-09-19T12:49:24;93418.09;;;25.62;69.12
12475;BME280;6302;42.624;23.334;2023-09-19T12:51:59;93423.84;;;25.44;71.78
12475;BME280;6302;42.624;23.334;2023-09-19T12:54:44;93415.72;;;25.44;71.11
12475;BME280;6302;42.624;23.334;2023-09-19T12:57:31;93419.28;;;25.55;69.65
12475;BME280;6302;42.624;23.334;2023-09-19T13:00:07;93423.84;;;25.44;70.60
12475;BME280;6302;42.624;23.334;2023-09-19T13:03:12;93418.91;;;25.42;71.99
12475;BME280;6302;42.624;23.334;2023-09-19T13:05:50;93368.50;;;25.25;72.71
12475;BME280;6302;42.624;23.334;2023-09-19T13:08:29;93412.44;;;25.71;70.12
12475;BME280;6302;42.624;23.334;2023-09-19T13:11:05;93401.34;;;25.69;71.93
12475;BME280;6302;42.624;23.334;2023-09-19T13:13:38;93403.78;;;25.67;70.83
12475;BME280;6302;42.624;23.334;2023-09-19T13:16:12;93395.44;;;25.76;72.81
12475;BME280;6302;42.624;23.334;2023-09-19T13:18:47;93402.38;;;25.77;70.04
12475;BME280;6302;42.624;23.334;2023-09-19T13:21:38;93400.94;;;25.87;70.11
12475;BME280;6302;42.624;23.334;2023-09-19T13:24:22;93393.00;;;25.83;68.29
12475;BME280;6302;42.624;23.334;2023-09-19T13:27:01;93403.91;;;25.89;68.82
12475;BME280;6302;42.624;23.334;2023-09-19T13:29:45;93383.38;;;25.82;67.74
12475;BME280;6302;42.624;23.334;2023-09-19T13:32:31;93386.31;;;25.73;67.48